Time;durP1;ratioP1;P1;durP2;ratioP2;P2;SDS_P1;SDS_P2;PMS_P1;PMS_P2;Temp;Humidity;BMP_temperature;BMP_pressure;BME280_temperature;BME280_humidity;BME280_pressure;Samples;Min_cycle;Max_cycle;Signal;HPM_P1;HPM_P2
2024/01/29 00:01:19;;;;;;;;;;;16.50;47.60;;;;;;7397096;19;1037;-62
2024/01/29 00:03:46;;;;;;;;;;;16.50;47.70;;;;;;7395322;19;1002;-64
2024/01/29 00:06:11;;;;;;;;;;;16.50;47.60;;;;;;7396696;19;1654;-62
2024/01/29 00:08:37;;;;;;;;;;;16.50;47.60;;;;;;7395383;19;1857;-62
2024/01/29 00:11:02;;;;;;;;;;;16.50;48.00;;;;;;7399144;19;1669;-62
2024/01/29 00:13:28;;;;;;;;;;;16.40;47.70;;;;;;7395628;19;1970;-63
2024/01/29 00:15:53;;;;;;;;;;;16.40;47.80;;;;;;7397638;19;1461;-62
2024/01/29 00:18:19;;;;;;;;;;;16.40;47.90;;;;;;7399599;19;1746;-62
2024/01/29 00:20:44;;;;;;;;;;;16.40;48.10;;;;;;7394533;19;2784;-63
2024/01/29 00:23:09;;;;;;;;;;;16.40;47.70;;;;;;7395699;19;1540;-62
2024/01/29 00:25:35;;;;;;;;;;;16.40;47.80;;;;;;7394075;19;1391;-63
2024/01/29 00:28:00;;;;;;;;;;;16.40;48.70;;;;;;7396132;19;1856;-63
2024/01/29 00:30:26;;;;;;;;;;;16.30;48.00;;;;;;7394451;19;1323;-62
2024/01/29 00:32:51;;;;;;;;;;;16.30;47.80;;;;;;7401145;19;783;-62
2024/01/29 00:35:16;;;;;;;;;;;16.30;48.60;;;;;;7393140;19;829;-62
2024/01/29 00:37:42;;;;;;;;;;;16.30;47.80;;;;;;7398294;19;1609;-62
2024/01/29 00:40:08;;;;;;;;;;;16.20;47.80;;;;;;7394508;19;1174;-62
2024/01/29 00:42:33;;;;;;;;;;;16.20;47.90;;;;;;7394903;19;1721;-62
2024/01/29 00:44:58;;;;;;;;;;;16.20;47.90;;;;;;7394537;19;1603;-62
2024/01/29 00:47:24;;;;;;;;;;;16.20;47.90;;;;;;7398596;19;1487;-62
2024/01/29 00:49:49;;;;;;;;;;;16.20;48.10;;;;;;7397730;19;1849;-62
2024/01/29 00:52:15;;;;;;;;;;;16.10;48.00;;;;;;7395843;19;1629;-62
2024/01/29 00:54:40;;;;;;;;;;;16.10;48.00;;;;;;7393326;19;1118;-62
2024/01/29 00:57:06;;;;;;;;;;;16.10;48.00;;;;;;7395516;19;1588;-62
2024/01/29 00:59:31;;;;;;;;;;;16.10;48.00;;;;;;7396805;19;1563;-62
2024/01/29 01:01:56;;;;;;;;;;;16.10;48.00;;;;;;7398485;19;990;-62
2024/01/29 01:04:22;;;;;;;;;;;16.10;48.00;;;;;;7395034;19;1336;-63
2024/01/29 01:06:47;;;;;;;;;;;16.00;47.90;;;;;;7394745;19;1420;-63
2024/01/29 01:09:14;;;;;;;;;;;16.00;48.00;;;;;;7391965;19;1837;-62
2024/01/29 01:11:40;;;;;;;;;;;16.00;47.90;;;;;;7393824;19;1677;-62
2024/01/29 01:14:06;;;;;;;;;;;16.00;47.90;;;;;;7392676;19;1060;-62
2024/01/29 01:16:31;;;;;;;;;;;16.00;48.00;;;;;;7396570;19;1445;-62
2024/01/29 01:18:57;;;;;;;;;;;16.00;48.10;;;;;;7393281;19;1220;-62
2024/01/29 01:21:22;;;;;;;;;;;15.90;47.90;;;;;;7393556;19;1447;-62
2024/01/29 01:23:47;;;;;;;;;;;15.90;48.10;;;;;;7393095;19;797;-62
2024/01/29 01:26:13;;;;;;;;;;;15.90;48.00;;;;;;7392771;19;1459;-63
2024/01/29 01:28:38;;;;;;;;;;;15.90;48.10;;;;;;7398663;19;1849;-62
2024/01/29 01:31:04;;;;;;;;;;;15.90;47.90;;;;;;7392614;19;1472;-62
2024/01/29 01:33:29;;;;;;;;;;;15.90;48.00;;;;;;7394768;19;1869;-63
2024/01/29 01:35:54;;;;;;;;;;;15.90;48.00;;;;;;7394474;19;1419;-62
2024/01/29 01:38:20;;;;;;;;;;;15.90;48.10;;;;;;7395317;19;1659;-62
2024/01/29 01:40:45;;;;;;;;;;;15.80;48.00;;;;;;7392620;19;1209;-62
2024/01/29 01:43:21;;;;;;;;;;;15.80;47.90;;;;;;7395980;19;1595;-63
2024/01/29 01:45:49;;;;;;;;;;;15.80;48.10;;;;;;7394331;19;1189;-62
2024/01/29 01:48:15;;;;;;;;;;;15.80;48.70;;;;;;7393331;19;1853;-62
2024/01/29 01:50:40;;;;;;;;;;;15.80;48.00;;;;;;7391606;19;1598;-62
2024/01/29 01:53:05;;;;;;;;;;;15.80;48.10;;;;;;7395018;19;1491;-62
2024/01/29 01:55:31;;;;;;;;;;;15.80;47.90;;;;;;7395621;19;1434;-62
2024/01/29 01:57:56;;;;;;;;;;;15.80;48.00;;;;;;7394357;19;1593;-63
2024/01/29 02:00:22;;;;;;;;;;;15.80;48.10;;;;;;7391031;19;1006;-62
2024/01/29 02:02:47;;;;;;;;;;;15.80;48.00;;;;;;7398252;19;1082;-62
2024/01/29 02:05:13;;;;;;;;;;;15.80;48.10;;;;;;7388565;19;1065;-62
2024/01/29 02:07:38;;;;;;;;;;;15.70;48.30;;;;;;7392433;19;1474;-62
2024/01/29 02:10:04;;;;;;;;;;;15.70;47.90;;;;;;7389882;19;1853;-62
2024/01/29 02:12:30;;;;;;;;;;;15.80;47.90;;;;;;7393594;19;1662;-62
2024/01/29 02:14:55;;;;;;;;;;;15.80;47.80;;;;;;7393058;19;1990;-63
2024/01/29 02:17:21;;;;;;;;;;;15.90;47.70;;;;;;7395169;19;1416;-62
2024/01/29 02:19:46;;;;;;;;;;;16.00;47.90;;;;;;7392042;19;1676;-62
2024/01/29 02:22:11;;;;;;;;;;;16.20;47.70;;;;;;7392752;19;1486;-62
2024/01/29 02:24:37;;;;;;;;;;;16.40;47.40;;;;;;7391610;19;1757;-62
2024/01/29 02:27:02;;;;;;;;;;;16.60;47.10;;;;;;7391113;19;1608;-62
2024/01/29 02:29:28;;;;;;;;;;;17.00;46.60;;;;;;7391229;19;1842;-62
2024/01/29 02:31:53;;;;;;;;;;;17.40;45.80;;;;;;7391034;19;1480;-62
2024/01/29 02:34:19;;;;;;;;;;;17.80;45.80;;;;;;7390430;19;1595;-62
2024/01/29 02:36:44;;;;;;;;;;;18.20;44.50;;;;;;7390647;19;1527;-62
2024/01/29 02:39:09;;;;;;;;;;;18.50;43.80;;;;;;7389467;19;1005;-62
2024/01/29 02:41:35;;;;;;;;;;;18.90;43.50;;;;;;7392091;19;1544;-63
2024/01/29 02:44:00;;;;;;;;;;;19.00;42.90;;;;;;7393733;19;1729;-62
2024/01/29 02:46:26;;;;;;;;;;;19.20;42.70;;;;;;7393974;19;1256;-62
2024/01/29 02:48:51;;;;;;;;;;;19.30;42.30;;;;;;7389799;19;1849;-62
2024/01/29 02:51:17;;;;;;;;;;;19.40;42.40;;;;;;7392672;19;1834;-62
2024/01/29 02:53:42;;;;;;;;;;;19.20;42.60;;;;;;7390440;19;863;-62
2024/01/29 02:56:08;;;;;;;;;;;19.10;42.70;;;;;;7391536;19;991;-62
2024/01/29 02:58:33;;;;;;;;;;;19.00;43.00;;;;;;7394028;19;1597;-62
2024/01/29 03:00:58;;;;;;;;;;;18.80;43.20;;;;;;7390379;19;1419;-62
2024/01/29 03:03:24;;;;;;;;;;;18.80;43.40;;;;;;7389722;19;975;-62
2024/01/29 03:05:49;;;;;;;;;;;18.70;43.40;;;;;;7393070;19;1452;-62
2024/01/29 03:08:15;;;;;;;;;;;18.60;43.40;;;;;;7395048;19;1860;-62
2024/01/29 03:10:40;;;;;;;;;;;18.50;43.50;;;;;;7393063;19;1669;-62
2024/01/29 03:13:05;;;;;;;;;;;18.40;43.70;;;;;;7393665;19;1551;-62
2024/01/29 03:15:31;;;;;;;;;;;18.30;43.80;;;;;;7391598;19;1841;-62
2024/01/29 03:17:56;;;;;;;;;;;18.20;43.80;;;;;;7391901;19;1027;-62
2024/01/29 03:20:22;;;;;;;;;;;18.20;43.90;;;;;;7398197;19;1424;-62
2024/01/29 03:22:47;;;;;;;;;;;18.20;44.00;;;;;;7400897;19;1602;-62
2024/01/29 03:25:12;;;;;;;;;;;18.10;44.10;;;;;;7399783;19;1576;-62
2024/01/29 03:27:38;;;;;;;;;;;18.10;44.30;;;;;;7397321;19;1417;-62
2024/01/29 03:30:03;;;;;;;;;;;18.00;44.30;;;;;;7398892;19;1865;-62
2024/01/29 03:32:29;;;;;;;;;;;17.90;44.70;;;;;;7398231;19;1347;-62
2024/01/29 03:34:54;;;;;;;;;;;17.90;44.50;;;;;;7395313;19;874;-62
2024/01/29 03:37:20;;;;;;;;;;;17.80;44.70;;;;;;7397535;19;1628;-62
2024/01/29 03:39:45;;;;;;;;;;;17.70;44.70;;;;;;7398738;19;1673;-62
2024/01/29 03:42:11;;;;;;;;;;;17.70;44.90;;;;;;7397566;19;817;-62
2024/01/29 03:44:36;;;;;;;;;;;17.60;44.80;;;;;;7398273;19;1663;-62
2024/01/29 03:47:02;;;;;;;;;;;17.60;44.90;;;;;;7397635;19;1583;-62
2024/01/29 03:49:27;;;;;;;;;;;17.60;45.10;;;;;;7394512;19;1849;-63
2024/01/29 03:51:52;;;;;;;;;;;17.60;45.10;;;;;;7394412;19;1599;-62
2024/01/29 03:54:18;;;;;;;;;;;17.50;45.20;;;;;;7399262;19;1471;-62
2024/01/29 03:56:43;;;;;;;;;;;17.50;45.20;;;;;;7395240;19;907;-62
2024/01/29 03:59:11;;;;;;;;;;;17.50;45.10;;;;;;7396483;19;1591;-62
2024/01/29 04:01:36;;;;;;;;;;;17.60;45.20;;;;;;7398715;19;836;-62
2024/01/29 04:04:02;;;;;;;;;;;17.60;44.90;;;;;;7399212;19;1523;-62
2024/01/29 04:06:27;;;;;;;;;;;17.70;44.90;;;;;;7394086;19;1069;-63
2024/01/29 04:08:52;;;;;;;;;;;17.70;44.80;;;;;;7396682;19;1854;-63
2024/01/29 04:11:18;;;;;;;;;;;17.70;44.70;;;;;;7397487;19;1592;-62
2024/01/29 04:13:43;;;;;;;;;;;17.80;44.70;;;;;;7395955;19;1910;-62
2024/01/29 04:16:10;;;;;;;;;;;17.80;44.60;;;;;;7396218;19;1817;-62
2024/01/29 04:18:35;;;;;;;;;;;17.80;44.70;;;;;;7397484;19;1591;-62
2024/01/29 04:21:02;;;;;;;;;;;17.80;44.60;;;;;;7397870;19;1634;-63
2024/01/29 04:23:28;;;;;;;;;;;17.80;44.60;;;;;;7398739;19;1414;-63
2024/01/29 04:25:53;;;;;;;;;;;17.80;44.70;;;;;;7394434;19;832;-63
2024/01/29 04:28:19;;;;;;;;;;;17.70;45.20;;;;;;7393212;19;1910;-63
2024/01/29 04:30:44;;;;;;;;;;;17.80;44.60;;;;;;7397836;19;1620;-62
2024/01/29 04:33:10;;;;;;;;;;;17.70;44.80;;;;;;7396116;19;1525;-62
2024/01/29 04:35:35;;;;;;;;;;;17.70;44.70;;;;;;7393131;19;1111;-62
2024/01/29 04:38:01;;;;;;;;;;;17.70;44.70;;;;;;7394288;19;1424;-63
2024/01/29 04:40:26;;;;;;;;;;;17.70;44.80;;;;;;7393685;19;1187;-62
2024/01/29 04:42:51;;;;;;;;;;;17.70;44.70;;;;;;7398503;19;1731;-62
2024/01/29 04:45:17;;;;;;;;;;;17.80;44.70;;;;;;7397074;19;1583;-62
2024/01/29 04:47:42;;;;;;;;;;;17.70;44.80;;;;;;7397740;19;1508;-62
2024/01/29 04:50:08;;;;;;;;;;;17.70;44.80;;;;;;7393671;19;1860;-62
2024/01/29 04:52:33;;;;;;;;;;;17.80;44.80;;;;;;7397680;19;903;-62
2024/01/29 04:54:59;;;;;;;;;;;17.80;44.70;;;;;;7396901;19;1559;-62
2024/01/29 04:57:24;;;;;;;;;;;17.80;44.90;;;;;;7399100;19;1539;-62
2024/01/29 04:59:50;;;;;;;;;;;17.70;44.80;;;;;;7395194;19;1586;-62
2024/01/29 05:02:16;;;;;;;;;;;17.70;45.10;;;;;;7394658;19;2757;-62
2024/01/29 05:04:42;;;;;;;;;;;17.70;45.00;;;;;;7396285;19;1618;-62
2024/01/29 05:07:07;;;;;;;;;;;17.70;44.90;;;;;;7391492;19;939;-63
2024/01/29 05:09:33;;;;;;;;;;;17.70;44.90;;;;;;7394149;19;1854;-62
2024/01/29 05:11:58;;;;;;;;;;;17.80;44.80;;;;;;7393372;19;1288;-62
2024/01/29 05:14:26;;;;;;;;;;;17.90;44.80;;;;;;7394096;19;2001;-62
2024/01/29 05:16:52;;;;;;;;;;;17.90;44.50;;;;;;7395623;19;1557;-63
2024/01/29 05:19:17;;;;;;;;;;;17.90;44.70;;;;;;7396202;19;1650;-62
2024/01/29 05:21:43;;;;;;;;;;;17.90;44.80;;;;;;7395004;19;1669;-63
2024/01/29 05:24:08;;;;;;;;;;;17.80;44.90;;;;;;7395134;19;1607;-62
2024/01/29 05:26:34;;;;;;;;;;;17.70;45.00;;;;;;7391855;19;1350;-62
2024/01/29 05:28:59;;;;;;;;;;;17.70;45.20;;;;;;7394620;19;1858;-62
2024/01/29 05:31:24;;;;;;;;;;;17.60;45.30;;;;;;7396512;19;1618;-63
2024/01/29 05:33:50;;;;;;;;;;;17.60;45.40;;;;;;7396493;19;1356;-62
2024/01/29 05:36:15;;;;;;;;;;;17.60;45.40;;;;;;7390941;19;1117;-62
2024/01/29 05:38:41;;;;;;;;;;;17.60;45.40;;;;;;7391789;19;1561;-62
2024/01/29 05:41:06;;;;;;;;;;;17.60;45.20;;;;;;7391602;19;1649;-63
2024/01/29 05:43:32;;;;;;;;;;;17.70;45.20;;;;;;7392325;19;879;-62
2024/01/29 05:45:57;;;;;;;;;;;17.70;45.10;;;;;;7394460;19;1597;-62
2024/01/29 05:48:22;;;;;;;;;;;17.80;45.00;;;;;;7391787;19;1861;-62
2024/01/29 05:50:48;;;;;;;;;;;17.80;44.90;;;;;;7394949;19;1536;-62
2024/01/29 05:53:13;;;;;;;;;;;17.90;44.90;;;;;;7391832;19;1125;-62
2024/01/29 05:55:39;;;;;;;;;;;17.90;44.80;;;;;;7395294;19;1519;-64
2024/01/29 05:58:06;;;;;;;;;;;18.00;44.70;;;;;;7396180;19;1670;-63
2024/01/29 06:00:31;;;;;;;;;;;18.00;44.80;;;;;;7395674;19;1535;-63
2024/01/29 06:02:56;;;;;;;;;;;17.90;44.60;;;;;;7392400;19;812;-63
2024/01/29 06:05:22;;;;;;;;;;;17.90;44.70;;;;;;7393779;19;1773;-63
2024/01/29 06:07:47;;;;;;;;;;;17.80;44.90;;;;;;7393205;19;1031;-62
2024/01/29 06:10:13;;;;;;;;;;;17.70;45.00;;;;;;7393284;19;1462;-62
2024/01/29 06:12:39;;;;;;;;;;;17.70;45.10;;;;;;7394251;19;1562;-62
2024/01/29 06:15:05;;;;;;;;;;;17.70;45.10;;;;;;7396508;19;1496;-62
2024/01/29 06:17:30;;;;;;;;;;;17.80;45.10;;;;;;7392736;19;1947;-62
2024/01/29 06:19:55;;;;;;;;;;;17.80;45.00;;;;;;7392913;19;1622;-62
2024/01/29 06:22:21;;;;;;;;;;;17.90;45.00;;;;;;7396937;19;1453;-62
2024/01/29 06:24:46;;;;;;;;;;;17.90;45.00;;;;;;7394614;19;1543;-62
2024/01/29 06:27:12;;;;;;;;;;;17.90;45.10;;;;;;7395011;19;1812;-62
2024/01/29 06:29:37;;;;;;;;;;;17.90;45.00;;;;;;7390327;19;1836;-62
2024/01/29 06:32:03;;;;;;;;;;;17.90;44.90;;;;;;7395726;19;831;-63
2024/01/29 06:34:28;;;;;;;;;;;17.90;44.90;;;;;;7386042;19;2283;-63
2024/01/29 06:36:54;;;;;;;;;;;18.00;45.00;;;;;;7391750;19;2333;-63
2024/01/29 06:39:20;;;;;;;;;;;18.10;44.80;;;;;;7390845;19;1585;-62
2024/01/29 06:41:45;;;;;;;;;;;18.20;44.80;;;;;;7392757;19;2495;-62
2024/01/29 06:44:11;;;;;;;;;;;18.20;45.50;;;;;;7394334;19;1658;-62
2024/01/29 06:46:36;;;;;;;;;;;18.20;44.60;;;;;;7393379;19;1340;-62
2024/01/29 06:49:02;;;;;;;;;;;18.20;44.70;;;;;;7392311;19;1850;-62
2024/01/29 06:51:28;;;;;;;;;;;18.20;44.60;;;;;;7390590;19;1425;-62
2024/01/29 06:53:53;;;;;;;;;;;18.20;44.90;;;;;;7402076;19;2768;-62
2024/01/29 06:56:18;;;;;;;;;;;18.20;44.80;;;;;;7399777;19;1709;-62
2024/01/29 06:58:45;;;;;;;;;;;18.20;44.70;;;;;;7400640;19;1342;-62
2024/01/29 07:01:10;;;;;;;;;;;18.30;44.70;;;;;;7399137;19;1683;-62
2024/01/29 07:03:36;;;;;;;;;;;18.30;44.50;;;;;;7399498;19;3223;-62
2024/01/29 07:06:01;;;;;;;;;;;18.40;44.50;;;;;;7396037;19;1605;-63
2024/01/29 07:08:26;;;;;;;;;;;18.30;44.30;;;;;;7400240;19;1844;-62
2024/01/29 07:10:52;;;;;;;;;;;18.40;44.30;;;;;;7398865;19;1601;-62
2024/01/29 07:13:17;;;;;;;;;;;18.30;44.30;;;;;;7402274;19;1887;-62
2024/01/29 07:15:43;;;;;;;;;;;18.30;44.50;;;;;;7398491;19;1646;-62
2024/01/29 07:18:08;;;;;;;;;;;18.30;44.50;;;;;;7400847;19;1682;-62
2024/01/29 07:20:39;;;;;;;;;;;18.30;44.70;;;;;;7399120;19;1850;-62
2024/01/29 07:23:05;;;;;;;;;;;18.40;44.60;;;;;;7398932;19;1567;-62
2024/01/29 07:25:31;;;;;;;;;;;18.30;44.40;;;;;;7398578;19;1368;-62
2024/01/29 07:27:59;;;;;;;;;;;18.30;44.50;;;;;;7400003;19;1845;-63
2024/01/29 07:30:25;;;;;;;;;;;18.40;44.50;;;;;;7398713;19;1755;-63
2024/01/29 07:32:50;;;;;;;;;;;18.40;44.40;;;;;;7399946;19;1526;-62
2024/01/29 07:35:16;;;;;;;;;;;18.40;44.40;;;;;;7397336;19;1998;-62
2024/01/29 07:37:42;;;;;;;;;;;18.50;44.40;;;;;;7398932;19;1600;-62
2024/01/29 07:40:08;;;;;;;;;;;18.50;44.40;;;;;;7398922;19;1529;-62
2024/01/29 07:42:33;;;;;;;;;;;18.50;44.40;;;;;;7400280;19;1560;-63
2024/01/29 07:44:58;;;;;;;;;;;18.50;44.20;;;;;;7400787;19;1374;-63
2024/01/29 07:47:24;;;;;;;;;;;18.50;44.20;;;;;;7399462;19;1760;-63
2024/01/29 07:49:50;;;;;;;;;;;18.60;44.20;;;;;;7394414;19;1838;-62
2024/01/29 07:52:15;;;;;;;;;;;18.60;44.10;;;;;;7398189;19;1591;-62
2024/01/29 07:54:40;;;;;;;;;;;18.60;44.10;;;;;;7398162;19;1500;-62
2024/01/29 07:57:06;;;;;;;;;;;18.60;44.00;;;;;;7400947;19;1454;-62
2024/01/29 07:59:31;;;;;;;;;;;18.70;43.90;;;;;;7398236;19;1556;-63
2024/01/29 08:01:57;;;;;;;;;;;18.60;44.00;;;;;;7400001;19;1580;-62
2024/01/29 08:04:22;;;;;;;;;;;18.60;44.10;;;;;;7393356;19;3071;-62
2024/01/29 08:06:47;;;;;;;;;;;18.60;44.20;;;;;;7397217;19;1278;-61
2024/01/29 08:09:13;;;;;;;;;;;18.50;44.30;;;;;;7395404;19;3716;-62
2024/01/29 08:11:39;;;;;;;;;;;18.50;44.50;;;;;;7395799;19;1585;-62
2024/01/29 08:14:04;;;;;;;;;;;18.40;44.50;;;;;;7398183;19;1648;-62
2024/01/29 08:16:30;;;;;;;;;;;18.50;44.70;;;;;;7399403;19;1889;-63
2024/01/29 08:18:56;;;;;;;;;;;18.40;44.70;;;;;;7398675;19;2007;-62
2024/01/29 08:21:22;;;;;;;;;;;18.50;44.60;;;;;;7393062;19;1730;-63
2024/01/29 08:23:47;;;;;;;;;;;18.50;44.40;;;;;;7397419;19;1614;-63
2024/01/29 08:26:13;;;;;;;;;;;18.50;44.40;;;;;;7396519;19;1574;-63
2024/01/29 08:28:38;;;;;;;;;;;18.50;44.40;;;;;;7397007;19;1849;-63
2024/01/29 08:31:05;;;;;;;;;;;18.60;44.40;;;;;;7398216;19;1645;-63
2024/01/29 08:33:32;;;;;;;;;;;18.60;44.30;;;;;;7394309;19;1646;-63
2024/01/29 08:35:58;;;;;;;;;;;18.60;44.30;;;;;;7398990;19;1723;-62
2024/01/29 08:38:23;;;;;;;;;;;18.60;44.20;;;;;;7395370;19;1581;-62
2024/01/29 08:40:49;;;;;;;;;;;18.60;44.30;;;;;;7395928;19;1820;-62
2024/01/29 08:43:15;;;;;;;;;;;18.60;44.30;;;;;;7398325;19;2057;-62
2024/01/29 08:45:40;;;;;;;;;;;18.60;44.30;;;;;;7394425;19;1863;-62
2024/01/29 08:48:07;;;;;;;;;;;18.60;44.50;;;;;;7397567;19;1810;-63
2024/01/29 08:50:32;;;;;;;;;;;18.60;44.30;;;;;;7394904;19;1542;-62
2024/01/29 08:52:58;;;;;;;;;;;18.60;44.30;;;;;;7397588;19;1631;-62
2024/01/29 08:55:23;;;;;;;;;;;18.70;44.50;;;;;;7395707;19;1638;-62
2024/01/29 08:57:49;;;;;;;;;;;18.70;44.20;;;;;;7395219;19;1676;-62
2024/01/29 09:00:15;;;;;;;;;;;18.70;44.50;;;;;;7398610;19;2007;-62
2024/01/29 09:02:41;;;;;;;;;;;18.60;44.40;;;;;;7396438;19;1709;-62
2024/01/29 09:05:07;;;;;;;;;;;18.60;44.60;;;;;;7396073;19;2683;-62
2024/01/29 09:07:32;;;;;;;;;;;18.60;44.80;;;;;;7395859;19;1596;-62
2024/01/29 09:09:58;;;;;;;;;;;18.60;44.70;;;;;;7391925;19;1846;-62
2024/01/29 09:12:23;;;;;;;;;;;18.60;44.80;;;;;;7393429;19;1618;-62
2024/01/29 09:14:49;;;;;;;;;;;18.60;44.80;;;;;;7395110;19;1634;-62
2024/01/29 09:17:14;;;;;;;;;;;18.60;44.60;;;;;;7395626;19;1681;-62
2024/01/29 09:19:40;;;;;;;;;;;18.60;44.60;;;;;;7395532;19;1612;-63
2024/01/29 09:22:05;;;;;;;;;;;18.70;44.70;;;;;;7394893;19;1427;-62
2024/01/29 09:24:30;;;;;;;;;;;18.80;44.40;;;;;;7396732;19;1696;-62
2024/01/29 09:26:56;;;;;;;;;;;18.90;44.20;;;;;;7394441;19;1658;-63
2024/01/29 09:29:21;;;;;;;;;;;18.90;44.10;;;;;;7395251;19;2083;-62
2024/01/29 09:31:47;;;;;;;;;;;19.00;43.90;;;;;;7400232;19;1584;-62
2024/01/29 09:34:12;;;;;;;;;;;19.00;43.90;;;;;;7393920;19;1750;-63
2024/01/29 09:36:38;;;;;;;;;;;19.10;43.70;;;;;;7394041;19;2107;-62
2024/01/29 09:39:05;;;;;;;;;;;19.20;43.70;;;;;;7395828;19;1608;-62
2024/01/29 09:41:34;;;;;;;;;;;19.20;43.70;;;;;;7391998;19;1553;-62
2024/01/29 09:44:00;;;;;;;;;;;19.20;43.70;;;;;;7395464;19;1677;-62
2024/01/29 09:46:25;;;;;;;;;;;19.20;43.80;;;;;;7394179;19;1582;-62
2024/01/29 09:48:51;;;;;;;;;;;19.10;43.70;;;;;;7394996;19;1857;-62
2024/01/29 09:51:16;;;;;;;;;;;19.00;43.60;;;;;;7391867;19;1501;-62
2024/01/29 09:53:41;;;;;;;;;;;18.90;43.90;;;;;;7394536;19;1555;-63
2024/01/29 09:56:07;;;;;;;;;;;18.90;44.10;;;;;;7394110;19;1330;-62
2024/01/29 09:58:32;;;;;;;;;;;18.90;44.20;;;;;;7394134;19;1694;-62
2024/01/29 10:00:58;;;;;;;;;;;18.90;44.00;;;;;;7396043;19;1660;-62
2024/01/29 10:03:28;;;;;;;;;;;18.90;44.10;;;;;;7391984;19;1514;-62
2024/01/29 10:05:53;;;;;;;;;;;18.90;44.00;;;;;;7392102;19;1514;-62
2024/01/29 10:08:19;;;;;;;;;;;18.90;44.00;;;;;;7394757;19;1842;-63
2024/01/29 10:10:44;;;;;;;;;;;18.90;44.00;;;;;;7394936;19;1696;-63
2024/01/29 10:13:10;;;;;;;;;;;18.90;44.00;;;;;;7393678;19;2182;-63
2024/01/29 10:15:35;;;;;;;;;;;19.10;44.00;;;;;;7392436;19;1690;-62
2024/01/29 10:18:00;;;;;;;;;;;19.10;43.80;;;;;;7394057;19;1835;-62
2024/01/29 10:20:26;;;;;;;;;;;19.20;43.80;;;;;;7390118;19;1654;-62
2024/01/29 10:22:58;;;;;;;;;;;19.30;43.80;;;;;;7393849;19;1316;-63
2024/01/29 10:25:23;;;;;;;;;;;19.30;43.80;;;;;;7391398;19;1314;-62
2024/01/29 10:27:49;;;;;;;;;;;19.20;43.70;;;;;;7398097;19;1698;-62
2024/01/29 10:30:14;;;;;;;;;;;19.30;43.80;;;;;;7398969;19;1841;-62
2024/01/29 10:32:40;;;;;;;;;;;19.30;43.80;;;;;;7402365;19;1674;-62
2024/01/29 10:35:05;;;;;;;;;;;19.20;43.70;;;;;;7400254;19;1667;-62
2024/01/29 10:37:31;;;;;;;;;;;19.20;43.60;;;;;;7401651;19;1628;-62
2024/01/29 10:39:56;;;;;;;;;;;19.30;43.70;;;;;;7399930;19;1730;-62
2024/01/29 10:42:22;;;;;;;;;;;19.30;43.50;;;;;;7403163;19;2107;-62
2024/01/29 10:44:48;;;;;;;;;;;19.30;43.30;;;;;;7401215;19;1429;-62
2024/01/29 10:47:16;;;;;;;;;;;19.30;44.20;;;;;;7398125;19;1347;-62
2024/01/29 10:49:43;;;;;;;;;;;19.30;43.70;;;;;;7396491;19;2017;-62
2024/01/29 10:52:09;;;;;;;;;;;19.20;43.70;;;;;;7402429;19;1999;-62
2024/01/29 10:54:34;;;;;;;;;;;19.10;43.70;;;;;;7399393;19;1481;-62
2024/01/29 10:57:00;;;;;;;;;;;19.10;43.70;;;;;;7399613;19;1685;-62
2024/01/29 10:59:25;;;;;;;;;;;19.20;43.70;;;;;;7399878;19;1859;-62
2024/01/29 11:01:52;;;;;;;;;;;19.20;43.70;;;;;;7400074;19;1912;-62
2024/01/29 11:04:18;;;;;;;;;;;19.20;43.70;;;;;;7401605;19;1923;-62
2024/01/29 11:06:52;;;;;;;;;;;19.20;43.70;;;;;;7398864;19;2378;-62
2024/01/29 11:09:17;;;;;;;;;;;19.20;43.60;;;;;;7398592;19;1893;-62
2024/01/29 11:11:43;;;;;;;;;;;19.30;43.60;;;;;;7397797;19;1959;-62
2024/01/29 11:14:08;;;;;;;;;;;19.30;43.50;;;;;;7398689;19;1643;-62
2024/01/29 11:16:35;;;;;;;;;;;19.30;43.50;;;;;;7399169;19;1728;-62
2024/01/29 11:19:01;;;;;;;;;;;19.30;43.50;;;;;;7402485;19;1680;-62
2024/01/29 11:21:26;;;;;;;;;;;19.30;43.30;;;;;;7398078;19;1497;-61
2024/01/29 11:23:52;;;;;;;;;;;19.30;43.20;;;;;;7399952;19;1490;-62
2024/01/29 11:26:18;;;;;;;;;;;19.50;43.20;;;;;;7399167;19;1779;-62
2024/01/29 11:28:44;;;;;;;;;;;19.40;43.40;;;;;;7400852;19;1857;-62
2024/01/29 11:31:11;;;;;;;;;;;19.40;43.20;;;;;;7397643;19;1777;-62
2024/01/29 11:33:36;;;;;;;;;;;19.50;43.20;;;;;;7400106;19;1952;-62
2024/01/29 11:36:06;;;;;;;;;;;19.50;43.10;;;;;;7395026;19;1568;-62
2024/01/29 11:38:31;;;;;;;;;;;19.60;43.10;;;;;;7393547;19;2354;-62
2024/01/29 11:40:59;;;;;;;;;;;19.60;43.10;;;;;;7397440;19;2367;-62
2024/01/29 11:43:24;;;;;;;;;;;19.50;43.20;;;;;;7397805;19;2457;-62
2024/01/29 11:45:50;;;;;;;;;;;19.40;43.20;;;;;;7396407;19;1659;-62
2024/01/29 11:48:16;;;;;;;;;;;19.50;43.20;;;;;;7396473;19;1837;-62
2024/01/29 11:50:51;;;;;;;;;;;19.40;43.30;;;;;;7397684;19;1952;-62
2024/01/29 11:53:17;;;;;;;;;;;19.40;43.20;;;;;;7398871;19;1500;-62
2024/01/29 11:55:43;;;;;;;;;;;19.40;43.30;;;;;;7396346;19;1531;-62
2024/01/29 11:58:12;;;;;;;;;;;19.40;43.60;;;;;;7398477;19;1573;-62
2024/01/29 12:00:39;;;;;;;;;;;19.50;43.40;;;;;;7396482;19;1587;-62
2024/01/29 12:03:05;;;;;;;;;;;19.50;43.40;;;;;;7399344;19;1634;-62
2024/01/29 12:05:31;;;;;;;;;;;19.60;43.50;;;;;;7394318;19;1551;-62
2024/01/29 12:07:56;;;;;;;;;;;19.70;43.30;;;;;;7400231;19;2246;-62
2024/01/29 12:10:22;;;;;;;;;;;19.70;43.20;;;;;;7394402;19;1855;-62
2024/01/29 12:12:47;;;;;;;;;;;19.70;43.40;;;;;;7395529;19;2191;-62
2024/01/29 12:15:12;;;;;;;;;;;19.70;43.30;;;;;;7395762;19;1807;-61
2024/01/29 12:17:39;;;;;;;;;;;19.70;43.20;;;;;;7397455;19;1585;-62
2024/01/29 12:20:05;;;;;;;;;;;19.80;43.40;;;;;;7394248;19;1925;-62
2024/01/29 12:22:31;;;;;;;;;;;19.80;43.30;;;;;;7397587;19;1577;-62
2024/01/29 12:24:57;;;;;;;;;;;19.80;43.20;;;;;;7397223;19;1552;-62
2024/01/29 12:27:22;;;;;;;;;;;19.90;43.20;;;;;;7397074;19;1494;-62
2024/01/29 12:29:48;;;;;;;;;;;19.90;43.00;;;;;;7395339;19;1857;-62
2024/01/29 12:32:13;;;;;;;;;;;19.90;43.00;;;;;;7396586;19;1246;-62
2024/01/29 12:34:45;;;;;;;;;;;19.80;43.20;;;;;;7398191;19;1580;-62
2024/01/29 12:37:21;;;;;;;;;;;19.80;43.30;;;;;;7394430;19;1408;-62
2024/01/29 12:39:53;;;;;;;;;;;19.70;43.30;;;;;;7394471;19;1520;-62
2024/01/29 12:42:18;;;;;;;;;;;19.70;43.60;;;;;;7396185;19;1939;-62
2024/01/29 12:44:44;;;;;;;;;;;19.70;43.60;;;;;;7395972;19;1751;-61
2024/01/29 12:47:12;;;;;;;;;;;19.60;43.30;;;;;;7396168;19;2636;-62
2024/01/29 12:49:38;;;;;;;;;;;19.60;43.40;;;;;;7393736;19;1838;-62
2024/01/29 12:52:04;;;;;;;;;;;19.60;43.80;;;;;;7397217;19;1866;-62
2024/01/29 12:54:29;;;;;;;;;;;19.70;43.60;;;;;;7396559;19;1713;-62
2024/01/29 12:56:55;;;;;;;;;;;19.80;43.60;;;;;;7395136;19;1582;-62
2024/01/29 12:59:20;;;;;;;;;;;19.70;43.40;;;;;;7395622;19;1619;-62
2024/01/29 13:01:46;;;;;;;;;;;19.70;43.50;;;;;;7397653;19;1660;-62
2024/01/29 13:04:11;;;;;;;;;;;19.70;43.50;;;;;;7395403;19;1364;-62
2024/01/29 13:06:36;;;;;;;;;;;19.70;43.40;;;;;;7393673;19;2188;-62
2024/01/29 13:09:03;;;;;;;;;;;19.80;43.50;;;;;;7396388;19;2172;-62
2024/01/29 13:11:29;;;;;;;;;;;19.80;43.30;;;;;;7394315;19;1829;-62
2024/01/29 13:13:54;;;;;;;;;;;19.80;43.30;;;;;;7395496;19;1608;-62
2024/01/29 13:16:20;;;;;;;;;;;19.80;43.40;;;;;;7395405;19;1605;-62
2024/01/29 13:18:45;;;;;;;;;;;19.80;43.30;;;;;;7396033;19;1597;-62
2024/01/29 13:21:11;;;;;;;;;;;19.80;43.30;;;;;;7394292;19;2078;-62
2024/01/29 13:23:37;;;;;;;;;;;19.80;43.30;;;;;;7394137;19;1843;-62
2024/01/29 13:26:03;;;;;;;;;;;19.80;43.40;;;;;;7394541;19;1623;-62
2024/01/29 13:28:28;;;;;;;;;;;19.90;43.50;;;;;;7394483;19;1965;-62
2024/01/29 13:30:55;;;;;;;;;;;19.90;43.50;;;;;;7395167;19;1589;-62
2024/01/29 13:33:21;;;;;;;;;;;19.90;43.70;;;;;;7395066;19;1703;-62
2024/01/29 13:35:49;;;;;;;;;;;19.90;43.60;;;;;;7389920;19;1476;-62
2024/01/29 13:38:15;;;;;;;;;;;19.90;43.80;;;;;;7393572;19;1511;-62
2024/01/29 13:40:40;;;;;;;;;;;19.90;43.70;;;;;;7395003;19;1699;-62
2024/01/29 13:43:06;;;;;;;;;;;19.90;43.70;;;;;;7394992;19;2052;-62
2024/01/29 13:45:32;;;;;;;;;;;19.80;43.70;;;;;;7395364;19;1638;-62
2024/01/29 13:47:58;;;;;;;;;;;19.80;43.90;;;;;;7396308;19;1511;-62
2024/01/29 13:50:24;;;;;;;;;;;19.80;43.70;;;;;;7390716;19;1841;-62
2024/01/29 13:52:50;;;;;;;;;;;19.90;43.90;;;;;;7395652;19;1901;-62
2024/01/29 13:55:16;;;;;;;;;;;19.90;43.80;;;;;;7393985;19;1787;-62
2024/01/29 13:57:42;;;;;;;;;;;19.90;43.80;;;;;;7393406;19;1664;-62
2024/01/29 14:00:10;;;;;;;;;;;19.90;43.60;;;;;;7394954;19;1328;-62
2024/01/29 14:02:35;;;;;;;;;;;19.90;43.80;;;;;;7393145;19;1221;-62
2024/01/29 14:05:01;;;;;;;;;;;19.90;43.80;;;;;;7394206;19;2036;-62
2024/01/29 14:07:26;;;;;;;;;;;19.90;43.90;;;;;;7391473;19;1511;-62
2024/01/29 14:09:52;;;;;;;;;;;19.90;43.90;;;;;;7391917;19;1870;-62
2024/01/29 14:12:18;;;;;;;;;;;19.80;43.90;;;;;;7392231;19;1567;-63
2024/01/29 14:14:44;;;;;;;;;;;19.90;44.00;;;;;;7395789;19;1668;-62
2024/01/29 14:17:09;;;;;;;;;;;19.90;43.90;;;;;;7393631;19;1749;-61
2024/01/29 14:19:35;;;;;;;;;;;19.90;44.10;;;;;;7393651;19;1691;-62
2024/01/29 14:22:02;;;;;;;;;;;19.90;43.80;;;;;;7390074;19;1894;-62